TAM3910 SBSP-SBRJ
Flight info
| Callsign | TAM3910 |
|---|---|
| Flight time | 0h 37m |
| Altitude | 24999 |
| Route | NIBRU UZ171 KEVUN |
| Aircraft | A320/M-SDE3FGHIRWY/LB1 |
Departure
| Time | 2026-05-06 13:11 |
|---|---|
| Airport | Congonhas–Deputado Freitas Nobre Airport (SBSP) |
Arrival
| Time | 2026-05-06 13:48 |
|---|---|
| Airport | Santos Dumont Airport (SBRJ) |
| Time | Latitude | Longitude | Altitude | Speed | Heading |
|---|---|---|---|---|---|
| 2026-05-06 12:57 | -23.62813 | -46.65757 | 2601 ft | 0 kts | 238° |
| 2026-05-06 13:04 | -23.62812 | -46.65755 | 2601 ft | 3 kts | 238° |
| 2026-05-06 13:04 | -23.62802 | -46.65738 | 2601 ft | 3 kts | 243° |
| 2026-05-06 13:05 | -23.62799 | -46.65718 | 2601 ft | 3 kts | 294° |
| 2026-05-06 13:05 | -23.62811 | -46.65703 | 2601 ft | 2 kts | 327° |
| 2026-05-06 13:07 | -23.62810 | -46.65703 | 2601 ft | 1 kts | 327° |
| 2026-05-06 13:07 | -23.62764 | -46.65713 | 2602 ft | 11 kts | 350° |
| 2026-05-06 13:07 | -23.62683 | -46.65743 | 2602 ft | 14 kts | 329° |
| 2026-05-06 13:07 | -23.62625 | -46.65781 | 2602 ft | 15 kts | 328° |
| 2026-05-06 13:08 | -23.62530 | -46.65849 | 2602 ft | 18 kts | 327° |
| 2026-05-06 13:08 | -23.62449 | -46.65905 | 2601 ft | 6 kts | 328° |
| 2026-05-06 13:08 | -23.62411 | -46.65931 | 2601 ft | 8 kts | 328° |
| 2026-05-06 13:08 | -23.62354 | -46.65970 | 2600 ft | 11 kts | 327° |
| 2026-05-06 13:09 | -23.62282 | -46.66020 | 2600 ft | 14 kts | 327° |
| 2026-05-06 13:09 | -23.62191 | -46.66077 | 2599 ft | 17 kts | 331° |
| 2026-05-06 13:09 | -23.62126 | -46.66120 | 2592 ft | 3 kts | 327° |
| 2026-05-06 13:09 | -23.62118 | -46.66126 | 2591 ft | 5 kts | 328° |
| 2026-05-06 13:10 | -23.62050 | -46.66125 | 2595 ft | 15 kts | 36° |
| 2026-05-06 13:10 | -23.62071 | -46.66060 | 2596 ft | 8 kts | 147° |
| 2026-05-06 13:10 | -23.62081 | -46.66053 | 2597 ft | 6 kts | 147° |
| 2026-05-06 13:10 | -23.62403 | -46.65828 | 2603 ft | 101 kts | 147° |
| 2026-05-06 13:11 | -23.63219 | -46.65260 | 2622 ft | 173 kts | 146° |
| 2026-05-06 13:11 | -23.64283 | -46.64529 | 3345 ft | 186 kts | 146° |
| 2026-05-06 13:11 | -23.65309 | -46.63594 | 3717 ft | 204 kts | 123° |
| 2026-05-06 13:11 | -23.65981 | -46.62129 | 3981 ft | 229 kts | 114° |
| 2026-05-06 13:12 | -23.66643 | -46.60446 | 4385 ft | 254 kts | 104° |
| 2026-05-06 13:12 | -23.66774 | -46.58481 | 5104 ft | 265 kts | 89° |
| 2026-05-06 13:12 | -23.66767 | -46.56463 | 6053 ft | 268 kts | 90° |
| 2026-05-06 13:12 | -23.66773 | -46.54423 | 7002 ft | 271 kts | 90° |
| 2026-05-06 13:13 | -23.66786 | -46.52354 | 7910 ft | 275 kts | 90° |
| 2026-05-06 13:13 | -23.66797 | -46.50255 | 8802 ft | 279 kts | 90° |
| 2026-05-06 13:13 | -23.66805 | -46.48126 | 9694 ft | 283 kts | 90° |
| 2026-05-06 13:13 | -23.66812 | -46.45961 | 10507 ft | 290 kts | 89° |
| 2026-05-06 13:14 | -23.66821 | -46.43666 | 10828 ft | 313 kts | 90° |
| 2026-05-06 13:14 | -23.66832 | -46.41248 | 11425 ft | 323 kts | 90° |
| 2026-05-06 13:14 | -23.66843 | -46.38772 | 12171 ft | 329 kts | 90° |
| 2026-05-06 13:14 | -23.66851 | -46.36256 | 12938 ft | 334 kts | 90° |
| 2026-05-06 13:15 | -23.66859 | -46.33707 | 13720 ft | 338 kts | 91° |
| 2026-05-06 13:15 | -23.66866 | -46.31126 | 14426 ft | 343 kts | 91° |
| 2026-05-06 13:15 | -23.66872 | -46.28549 | 15081 ft | 347 kts | 91° |
| 2026-05-06 13:15 | -23.66877 | -46.25862 | 15747 ft | 352 kts | 91° |
| 2026-05-06 13:16 | -23.66880 | -46.23216 | 16387 ft | 357 kts | 91° |
| 2026-05-06 13:16 | -23.66880 | -46.20492 | 17048 ft | 361 kts | 91° |
| 2026-05-06 13:16 | -23.66879 | -46.17734 | 17701 ft | 366 kts | 91° |
| 2026-05-06 13:16 | -23.66877 | -46.14939 | 18358 ft | 371 kts | 91° |
| 2026-05-06 13:17 | -23.66776 | -46.12104 | 18940 ft | 377 kts | 84° |
| 2026-05-06 13:17 | -23.66381 | -46.09257 | 19438 ft | 386 kts | 82° |
| 2026-05-06 13:17 | -23.65959 | -46.06289 | 19553 ft | 406 kts | 82° |
| 2026-05-06 13:17 | -23.65515 | -46.03171 | 19672 ft | 425 kts | 82° |
| 2026-05-06 13:18 | -23.65048 | -45.99917 | 19788 ft | 442 kts | 82° |
| 2026-05-06 13:18 | -23.64559 | -45.96550 | 19914 ft | 457 kts | 82° |
| 2026-05-06 13:18 | -23.64055 | -45.93089 | 20160 ft | 466 kts | 82° |
| 2026-05-06 13:18 | -23.63544 | -45.89578 | 20566 ft | 471 kts | 82° |
| 2026-05-06 13:19 | -23.63027 | -45.86037 | 21012 ft | 474 kts | 82° |
| 2026-05-06 13:19 | -23.62507 | -45.82469 | 21451 ft | 478 kts | 82° |
| 2026-05-06 13:19 | -23.61985 | -45.78881 | 21881 ft | 481 kts | 82° |
| 2026-05-06 13:19 | -23.61462 | -45.75269 | 22293 ft | 484 kts | 82° |
| 2026-05-06 13:20 | -23.60934 | -45.71631 | 22682 ft | 487 kts | 82° |
| 2026-05-06 13:20 | -23.60407 | -45.68023 | 23042 ft | 490 kts | 82° |
| 2026-05-06 13:20 | -23.59862 | -45.64293 | 23410 ft | 493 kts | 82° |
| 2026-05-06 13:20 | -23.59327 | -45.60637 | 23753 ft | 496 kts | 82° |
| 2026-05-06 13:21 | -23.58782 | -45.56919 | 24032 ft | 498 kts | 82° |
| 2026-05-06 13:21 | -23.58233 | -45.53188 | 24298 ft | 500 kts | 82° |
| 2026-05-06 13:21 | -23.57679 | -45.49437 | 24535 ft | 501 kts | 82° |
| 2026-05-06 13:21 | -23.57109 | -45.45683 | 24758 ft | 503 kts | 81° |
| 2026-05-06 13:22 | -23.56433 | -45.41945 | 25043 ft | 503 kts | 79° |
| 2026-05-06 13:22 | -23.55658 | -45.38223 | 25185 ft | 503 kts | 78° |
| 2026-05-06 13:22 | -23.54822 | -45.34517 | 25226 ft | 503 kts | 77° |
| 2026-05-06 13:22 | -23.53965 | -45.30823 | 25212 ft | 503 kts | 77° |
| 2026-05-06 13:23 | -23.53115 | -45.27119 | 25210 ft | 503 kts | 77° |
| 2026-05-06 13:23 | -23.52290 | -45.23417 | 25224 ft | 503 kts | 78° |
| 2026-05-06 13:23 | -23.51489 | -45.19702 | 25226 ft | 503 kts | 78° |
| 2026-05-06 13:23 | -23.50707 | -45.15990 | 25207 ft | 503 kts | 78° |
| 2026-05-06 13:24 | -23.49936 | -45.12276 | 25215 ft | 503 kts | 78° |
| 2026-05-06 13:24 | -23.49163 | -45.08556 | 25213 ft | 503 kts | 78° |
| 2026-05-06 13:24 | -23.48382 | -45.04843 | 25210 ft | 503 kts | 78° |
| 2026-05-06 13:24 | -23.47592 | -45.01136 | 25183 ft | 501 kts | 78° |
| 2026-05-06 13:25 | -23.46803 | -44.97472 | 24478 ft | 493 kts | 77° |
| 2026-05-06 13:25 | -23.46020 | -44.93854 | 23613 ft | 487 kts | 77° |
| 2026-05-06 13:25 | -23.45238 | -44.90292 | 22670 ft | 480 kts | 77° |
| 2026-05-06 13:25 | -23.44465 | -44.86826 | 21783 ft | 474 kts | 77° |
| 2026-05-06 13:26 | -23.43688 | -44.83368 | 20921 ft | 467 kts | 77° |
| 2026-05-06 13:26 | -23.42921 | -44.79955 | 20093 ft | 462 kts | 77° |
| 2026-05-06 13:26 | -23.42163 | -44.76578 | 19294 ft | 456 kts | 77° |
| 2026-05-06 13:26 | -23.41422 | -44.73247 | 18503 ft | 450 kts | 77° |
| 2026-05-06 13:27 | -23.40692 | -44.69950 | 17665 ft | 445 kts | 77° |
| 2026-05-06 13:27 | -23.39977 | -44.66724 | 17083 ft | 434 kts | 77° |
| 2026-05-06 13:27 | -23.39270 | -44.63559 | 16438 ft | 427 kts | 77° |
| 2026-05-06 13:27 | -23.38569 | -44.60442 | 15800 ft | 422 kts | 77° |
| 2026-05-06 13:28 | -23.37875 | -44.57363 | 15198 ft | 417 kts | 77° |
| 2026-05-06 13:28 | -23.37193 | -44.54333 | 14922 ft | 404 kts | 77° |
| 2026-05-06 13:28 | -23.36541 | -44.51430 | 14698 ft | 389 kts | 77° |
| 2026-05-06 13:28 | -23.35904 | -44.48595 | 14161 ft | 384 kts | 76° |
| 2026-05-06 13:29 | -23.35275 | -44.45788 | 13568 ft | 379 kts | 76° |
| 2026-05-06 13:29 | -23.34640 | -44.43024 | 12957 ft | 375 kts | 73° |
| 2026-05-06 13:29 | -23.33709 | -44.40393 | 12352 ft | 371 kts | 65° |
| 2026-05-06 13:29 | -23.32623 | -44.37871 | 11768 ft | 366 kts | 65° |
| 2026-05-06 13:30 | -23.31549 | -44.35382 | 11278 ft | 360 kts | 65° |
| 2026-05-06 13:30 | -23.30504 | -44.32963 | 11036 ft | 346 kts | 65° |
| 2026-05-06 13:30 | -23.29500 | -44.30633 | 10801 ft | 335 kts | 65° |
| 2026-05-06 13:30 | -23.28527 | -44.28375 | 10567 ft | 325 kts | 65° |
| 2026-05-06 13:31 | -23.27581 | -44.26182 | 10334 ft | 316 kts | 65° |
| 2026-05-06 13:31 | -23.26660 | -44.24044 | 10124 ft | 308 kts | 65° |
| 2026-05-06 13:31 | -23.25769 | -44.21973 | 9998 ft | 297 kts | 65° |
| 2026-05-06 13:31 | -23.24911 | -44.19974 | 9863 ft | 289 kts | 65° |
| 2026-05-06 13:32 | -23.24065 | -44.18007 | 9746 ft | 287 kts | 65° |
| 2026-05-06 13:32 | -23.23221 | -44.16045 | 9615 ft | 286 kts | 65° |
| 2026-05-06 13:32 | -23.22378 | -44.14092 | 9487 ft | 285 kts | 65° |
| 2026-05-06 13:32 | -23.21539 | -44.12144 | 9361 ft | 285 kts | 65° |
| 2026-05-06 13:33 | -23.20710 | -44.10222 | 9235 ft | 284 kts | 65° |
| 2026-05-06 13:33 | -23.19872 | -44.08282 | 9114 ft | 283 kts | 65° |
| 2026-05-06 13:33 | -23.19018 | -44.06356 | 8989 ft | 283 kts | 64° |
| 2026-05-06 13:33 | -23.18141 | -44.04445 | 8864 ft | 282 kts | 64° |
| 2026-05-06 13:34 | -23.17258 | -44.02541 | 8746 ft | 282 kts | 64° |
| 2026-05-06 13:34 | -23.16376 | -44.00644 | 8614 ft | 281 kts | 64° |
| 2026-05-06 13:34 | -23.15499 | -43.98745 | 8497 ft | 281 kts | 64° |
| 2026-05-06 13:34 | -23.14658 | -43.96835 | 8377 ft | 280 kts | 65° |
| 2026-05-06 13:35 | -23.13840 | -43.94916 | 8254 ft | 279 kts | 66° |
| 2026-05-06 13:35 | -23.13030 | -43.93002 | 8136 ft | 279 kts | 66° |
| 2026-05-06 13:35 | -23.12223 | -43.91091 | 8019 ft | 278 kts | 66° |
| 2026-05-06 13:35 | -23.11416 | -43.89189 | 7898 ft | 277 kts | 66° |
| 2026-05-06 13:36 | -23.10608 | -43.87290 | 7775 ft | 277 kts | 66° |
| 2026-05-06 13:36 | -23.09801 | -43.85399 | 7752 ft | 275 kts | 66° |
| 2026-05-06 13:36 | -23.08992 | -43.83508 | 7994 ft | 277 kts | 66° |
| 2026-05-06 13:36 | -23.08175 | -43.81598 | 8162 ft | 279 kts | 66° |
| 2026-05-06 13:37 | -23.07355 | -43.79684 | 8208 ft | 280 kts | 66° |
| 2026-05-06 13:37 | -23.06535 | -43.77771 | 8212 ft | 280 kts | 65° |
| 2026-05-06 13:37 | -23.05714 | -43.75856 | 8218 ft | 279 kts | 66° |
| 2026-05-06 13:37 | -23.04897 | -43.73944 | 8217 ft | 279 kts | 65° |
| 2026-05-06 13:38 | -23.04077 | -43.72031 | 8218 ft | 279 kts | 65° |
| 2026-05-06 13:38 | -23.03255 | -43.70122 | 8219 ft | 279 kts | 65° |
| 2026-05-06 13:38 | -23.02426 | -43.68205 | 8000 ft | 280 kts | 65° |
| 2026-05-06 13:38 | -23.01594 | -43.66306 | 7744 ft | 277 kts | 65° |
| 2026-05-06 13:39 | -23.00769 | -43.64427 | 7488 ft | 275 kts | 65° |
| 2026-05-06 13:39 | -22.99944 | -43.62549 | 7118 ft | 278 kts | 65° |
| 2026-05-06 13:39 | -22.99125 | -43.60687 | 6854 ft | 275 kts | 65° |
| 2026-05-06 13:39 | -22.98308 | -43.58828 | 6710 ft | 271 kts | 65° |
| 2026-05-06 13:40 | -22.97498 | -43.56984 | 6553 ft | 271 kts | 65° |
| 2026-05-06 13:40 | -22.96686 | -43.55142 | 6391 ft | 271 kts | 65° |
| 2026-05-06 13:40 | -22.95877 | -43.53305 | 6239 ft | 269 kts | 65° |
| 2026-05-06 13:40 | -22.95067 | -43.51468 | 6081 ft | 269 kts | 65° |
| 2026-05-06 13:41 | -22.94268 | -43.49637 | 5870 ft | 268 kts | 66° |
| 2026-05-06 13:41 | -22.93499 | -43.47834 | 5632 ft | 267 kts | 66° |
| 2026-05-06 13:41 | -22.92730 | -43.46015 | 5405 ft | 263 kts | 66° |
| 2026-05-06 13:41 | -22.91974 | -43.44220 | 5171 ft | 260 kts | 66° |
| 2026-05-06 13:42 | -22.91230 | -43.42448 | 4933 ft | 256 kts | 66° |
| 2026-05-06 13:42 | -22.90496 | -43.40706 | 4716 ft | 251 kts | 66° |
| 2026-05-06 13:42 | -22.89774 | -43.38999 | 4493 ft | 246 kts | 66° |
| 2026-05-06 13:42 | -22.89071 | -43.37340 | 4269 ft | 240 kts | 66° |
| 2026-05-06 13:43 | -22.88463 | -43.35685 | 4108 ft | 232 kts | 78° |
| 2026-05-06 13:43 | -22.88384 | -43.33975 | 3852 ft | 225 kts | 95° |
| 2026-05-06 13:43 | -22.88547 | -43.32309 | 3536 ft | 218 kts | 95° |
| 2026-05-06 13:43 | -22.88700 | -43.30704 | 3256 ft | 211 kts | 95° |
| 2026-05-06 13:44 | -22.88845 | -43.29150 | 2987 ft | 202 kts | 95° |
| 2026-05-06 13:44 | -22.88982 | -43.27681 | 2775 ft | 190 kts | 95° |
| 2026-05-06 13:44 | -22.89205 | -43.26310 | 2514 ft | 181 kts | 109° |
| 2026-05-06 13:44 | -22.89729 | -43.25100 | 2254 ft | 174 kts | 115° |
| 2026-05-06 13:45 | -22.90254 | -43.23936 | 2011 ft | 169 kts | 115° |
| 2026-05-06 13:45 | -22.91209 | -43.21802 | 1602 ft | 148 kts | 115° |
| 2026-05-06 13:45 | -22.91657 | -43.20813 | 1444 ft | 144 kts | 117° |
| 2026-05-06 13:46 | -22.92246 | -43.19937 | 1338 ft | 144 kts | 134° |
| 2026-05-06 13:46 | -22.93043 | -43.19283 | 1119 ft | 144 kts | 144° |
| 2026-05-06 13:46 | -22.93877 | -43.18691 | 920 ft | 143 kts | 143° |
| 2026-05-06 13:46 | -22.94536 | -43.17917 | 740 ft | 140 kts | 114° |
| 2026-05-06 13:47 | -22.94616 | -43.16905 | 575 ft | 136 kts | 66° |
| 2026-05-06 13:47 | -22.93937 | -43.16250 | 470 ft | 136 kts | 14° |
| 2026-05-06 13:47 | -22.92997 | -43.16171 | 258 ft | 136 kts | 357° |
| 2026-05-06 13:47 | -22.92051 | -43.16220 | 107 ft | 136 kts | 356° |
| 2026-05-06 13:48 | -22.91139 | -43.16277 | 25 ft | 119 kts | 356° |
| 2026-05-06 13:48 | -22.90590 | -43.16314 | 24 ft | 26 kts | 356° |
| 2026-05-06 13:48 | -22.90492 | -43.16356 | 24 ft | 13 kts | 283° |
| 2026-05-06 13:48 | -22.90496 | -43.16456 | 23 ft | 6 kts | 266° |
| 2026-05-06 13:49 | -22.90499 | -43.16514 | 22 ft | 10 kts | 266° |
| 2026-05-06 13:49 | -22.90545 | -43.16555 | 22 ft | 11 kts | 179° |
| 2026-05-06 13:49 | -22.90608 | -43.16552 | 22 ft | 10 kts | 177° |
| 2026-05-06 13:49 | -22.90665 | -43.16548 | 22 ft | 8 kts | 176° |
| 2026-05-06 13:50 | -22.90733 | -43.16543 | 22 ft | 11 kts | 176° |
| 2026-05-06 13:50 | -22.90822 | -43.16547 | 22 ft | 14 kts | 189° |
| 2026-05-06 13:50 | -22.90916 | -43.16545 | 22 ft | 10 kts | 175° |
| 2026-05-06 13:50 | -22.90945 | -43.16555 | 22 ft | 3 kts | 235° |
| 2026-05-06 13:51 | -22.90952 | -43.16592 | 22 ft | 7 kts | 266° |
| 2026-05-06 13:51 | -22.90953 | -43.16615 | 22 ft | 4 kts | 266° |
| 2026-05-06 13:51 | -22.90953 | -43.16619 | 22 ft | 0 kts | 266° |